sensor_id;sensor_type;location;lat;lon;timestamp;P1;durP1;ratioP1;P2;durP2;ratioP2
86077;SDS011;76680;59.304;18.294;2024-02-26T00:00:02;112.43;;;13.47;;
86077;SDS011;76680;59.304;18.294;2024-02-26T00:02:28;127.87;;;12.23;;
86077;SDS011;76680;59.304;18.294;2024-02-26T00:04:53;115.17;;;12.60;;
86077;SDS011;76680;59.304;18.294;2024-02-26T00:07:18;155.23;;;13.23;;
86077;SDS011;76680;59.304;18.294;2024-02-26T00:09:43;92.30;;;11.57;;
86077;SDS011;76680;59.304;18.294;2024-02-26T00:12:09;129.90;;;11.23;;
86077;SDS011;76680;59.304;18.294;2024-02-26T00:14:34;181.83;;;12.80;;
86077;SDS011;76680;59.304;18.294;2024-02-26T00:16:59;89.10;;;12.40;;
86077;SDS011;76680;59.304;18.294;2024-02-26T00:19:25;39.37;;;9.90;;
86077;SDS011;76680;59.304;18.294;2024-02-26T00:21:50;43.87;;;10.23;;
86077;SDS011;76680;59.304;18.294;2024-02-26T00:24:15;92.83;;;11.87;;
86077;SDS011;76680;59.304;18.294;2024-02-26T00:26:41;96.37;;;10.77;;
86077;SDS011;76680;59.304;18.294;2024-02-26T00:29:06;104.03;;;13.00;;
86077;SDS011;76680;59.304;18.294;2024-02-26T00:31:31;20.67;;;9.40;;
86077;SDS011;76680;59.304;18.294;2024-02-26T00:33:56;19.73;;;9.47;;
86077;SDS011;76680;59.304;18.294;2024-02-26T00:36:22;20.57;;;8.80;;
86077;SDS011;76680;59.304;18.294;2024-02-26T00:38:47;14.30;;;7.63;;
86077;SDS011;76680;59.304;18.294;2024-02-26T00:41:16;25.07;;;10.23;;
86077;SDS011;76680;59.304;18.294;2024-02-26T00:43:41;17.10;;;9.00;;
86077;SDS011;76680;59.304;18.294;2024-02-26T00:46:07;19.97;;;9.43;;
86077;SDS011;76680;59.304;18.294;2024-02-26T00:48:33;17.40;;;9.90;;
86077;SDS011;76680;59.304;18.294;2024-02-26T00:50:58;16.03;;;8.27;;
86077;SDS011;76680;59.304;18.294;2024-02-26T00:53:23;20.67;;;9.77;;
86077;SDS011;76680;59.304;18.294;2024-02-26T00:55:50;24.77;;;9.43;;
86077;SDS011;76680;59.304;18.294;2024-02-26T00:58:15;24.33;;;10.37;;
86077;SDS011;76680;59.304;18.294;2024-02-26T01:00:40;21.70;;;9.57;;
86077;SDS011;76680;59.304;18.294;2024-02-26T01:03:06;17.67;;;8.80;;
86077;SDS011;76680;59.304;18.294;2024-02-26T01:05:31;15.70;;;7.87;;
86077;SDS011;76680;59.304;18.294;2024-02-26T01:07:56;13.97;;;7.63;;
86077;SDS011;76680;59.304;18.294;2024-02-26T01:10:22;10.33;;;6.97;;
86077;SDS011;76680;59.304;18.294;2024-02-26T01:12:47;16.10;;;8.53;;
86077;SDS011;76680;59.304;18.294;2024-02-26T01:15:12;11.00;;;7.13;;
86077;SDS011;76680;59.304;18.294;2024-02-26T01:17:38;16.07;;;9.87;;
86077;SDS011;76680;59.304;18.294;2024-02-26T01:20:04;15.03;;;8.17;;
86077;SDS011;76680;59.304;18.294;2024-02-26T01:22:29;14.87;;;8.20;;
86077;SDS011;76680;59.304;18.294;2024-02-26T01:24:55;16.67;;;9.80;;
86077;SDS011;76680;59.304;18.294;2024-02-26T01:27:21;20.20;;;9.67;;
86077;SDS011;76680;59.304;18.294;2024-02-26T01:29:51;15.63;;;9.13;;
86077;SDS011;76680;59.304;18.294;2024-02-26T01:32:17;24.53;;;9.00;;
86077;SDS011;76680;59.304;18.294;2024-02-26T01:34:42;17.67;;;9.67;;
86077;SDS011;76680;59.304;18.294;2024-02-26T01:37:07;21.97;;;9.87;;
86077;SDS011;76680;59.304;18.294;2024-02-26T01:39:33;25.30;;;8.77;;
86077;SDS011;76680;59.304;18.294;2024-02-26T01:41:58;17.33;;;8.90;;
86077;SDS011;76680;59.304;18.294;2024-02-26T01:44:24;17.43;;;8.77;;
86077;SDS011;76680;59.304;18.294;2024-02-26T01:46:50;20.33;;;8.50;;
86077;SDS011;76680;59.304;18.294;2024-02-26T01:49:16;22.40;;;10.10;;
86077;SDS011;76680;59.304;18.294;2024-02-26T01:51:41;24.80;;;11.90;;
86077;SDS011;76680;59.304;18.294;2024-02-26T01:54:07;25.53;;;10.90;;
86077;SDS011;76680;59.304;18.294;2024-02-26T01:56:33;17.57;;;9.80;;
86077;SDS011;76680;59.304;18.294;2024-02-26T01:58:59;36.70;;;12.30;;
86077;SDS011;76680;59.304;18.294;2024-02-26T02:01:25;26.80;;;10.83;;
86077;SDS011;76680;59.304;18.294;2024-02-26T02:03:50;31.30;;;12.63;;
86077;SDS011;76680;59.304;18.294;2024-02-26T02:06:16;32.27;;;12.50;;
86077;SDS011;76680;59.304;18.294;2024-02-26T02:08:41;27.10;;;10.03;;
86077;SDS011;76680;59.304;18.294;2024-02-26T02:11:07;26.13;;;13.80;;
86077;SDS011;76680;59.304;18.294;2024-02-26T02:13:33;24.90;;;11.80;;
86077;SDS011;76680;59.304;18.294;2024-02-26T02:15:58;23.93;;;12.43;;
86077;SDS011;76680;59.304;18.294;2024-02-26T02:18:23;24.80;;;11.60;;
86077;SDS011;76680;59.304;18.294;2024-02-26T02:20:48;20.27;;;12.37;;
86077;SDS011;76680;59.304;18.294;2024-02-26T02:23:14;20.27;;;10.00;;
86077;SDS011;76680;59.304;18.294;2024-02-26T02:25:39;20.60;;;10.00;;
86077;SDS011;76680;59.304;18.294;2024-02-26T02:28:04;30.77;;;12.10;;
86077;SDS011;76680;59.304;18.294;2024-02-26T02:30:30;34.77;;;10.50;;
86077;SDS011;76680;59.304;18.294;2024-02-26T02:32:56;17.83;;;9.67;;
86077;SDS011;76680;59.304;18.294;2024-02-26T02:35:22;32.60;;;11.87;;
86077;SDS011;76680;59.304;18.294;2024-02-26T02:37:47;42.70;;;14.53;;
86077;SDS011;76680;59.304;18.294;2024-02-26T02:40:13;29.40;;;11.43;;
86077;SDS011;76680;59.304;18.294;2024-02-26T02:42:38;28.93;;;11.40;;
86077;SDS011;76680;59.304;18.294;2024-02-26T02:45:03;64.70;;;15.83;;
86077;SDS011;76680;59.304;18.294;2024-02-26T02:47:29;46.67;;;15.07;;
86077;SDS011;76680;59.304;18.294;2024-02-26T02:49:54;96.97;;;17.37;;
86077;SDS011;76680;59.304;18.294;2024-02-26T02:52:19;58.57;;;16.90;;
86077;SDS011;76680;59.304;18.294;2024-02-26T02:54:45;62.30;;;16.37;;
86077;SDS011;76680;59.304;18.294;2024-02-26T02:57:11;59.90;;;15.13;;
86077;SDS011;76680;59.304;18.294;2024-02-26T02:59:37;45.47;;;13.47;;
86077;SDS011;76680;59.304;18.294;2024-02-26T03:02:02;52.47;;;16.63;;
86077;SDS011;76680;59.304;18.294;2024-02-26T03:04:28;45.10;;;15.00;;
86077;SDS011;76680;59.304;18.294;2024-02-26T03:06:54;48.73;;;16.67;;
86077;SDS011;76680;59.304;18.294;2024-02-26T03:09:19;36.03;;;14.43;;
86077;SDS011;76680;59.304;18.294;2024-02-26T03:11:45;75.57;;;16.70;;
86077;SDS011;76680;59.304;18.294;2024-02-26T03:14:10;63.40;;;15.63;;
86077;SDS011;76680;59.304;18.294;2024-02-26T03:16:35;72.20;;;15.30;;
86077;SDS011;76680;59.304;18.294;2024-02-26T03:19:01;39.43;;;13.07;;
86077;SDS011;76680;59.304;18.294;2024-02-26T03:21:26;63.87;;;15.90;;
86077;SDS011;76680;59.304;18.294;2024-02-26T03:23:52;54.93;;;15.07;;
86077;SDS011;76680;59.304;18.294;2024-02-26T03:26:17;48.90;;;15.63;;
86077;SDS011;76680;59.304;18.294;2024-02-26T03:28:42;45.90;;;15.97;;
86077;SDS011;76680;59.304;18.294;2024-02-26T03:31:08;50.03;;;15.80;;
86077;SDS011;76680;59.304;18.294;2024-02-26T03:33:33;35.13;;;14.23;;
86077;SDS011;76680;59.304;18.294;2024-02-26T03:35:59;50.40;;;15.50;;
86077;SDS011;76680;59.304;18.294;2024-02-26T03:38:24;82.13;;;17.27;;
86077;SDS011;76680;59.304;18.294;2024-02-26T03:40:49;47.13;;;15.33;;
86077;SDS011;76680;59.304;18.294;2024-02-26T03:43:15;56.13;;;15.37;;
86077;SDS011;76680;59.304;18.294;2024-02-26T03:45:40;47.33;;;16.83;;
86077;SDS011;76680;59.304;18.294;2024-02-26T03:48:05;52.40;;;16.20;;
86077;SDS011;76680;59.304;18.294;2024-02-26T03:50:31;41.73;;;13.03;;
86077;SDS011;76680;59.304;18.294;2024-02-26T03:52:56;44.67;;;15.77;;
86077;SDS011;76680;59.304;18.294;2024-02-26T03:55:22;27.47;;;13.13;;
86077;SDS011;76680;59.304;18.294;2024-02-26T03:57:50;39.60;;;12.97;;
86077;SDS011;76680;59.304;18.294;2024-02-26T04:00:15;38.30;;;15.37;;
86077;SDS011;76680;59.304;18.294;2024-02-26T04:02:41;41.03;;;16.00;;
86077;SDS011;76680;59.304;18.294;2024-02-26T04:05:09;37.97;;;14.00;;
86077;SDS011;76680;59.304;18.294;2024-02-26T04:07:34;24.87;;;12.40;;
86077;SDS011;76680;59.304;18.294;2024-02-26T04:10:00;34.27;;;13.00;;
86077;SDS011;76680;59.304;18.294;2024-02-26T04:12:28;37.87;;;15.53;;
86077;SDS011;76680;59.304;18.294;2024-02-26T04:14:54;31.00;;;14.33;;
86077;SDS011;76680;59.304;18.294;2024-02-26T04:17:19;29.83;;;11.77;;
86077;SDS011;76680;59.304;18.294;2024-02-26T04:19:44;23.70;;;11.00;;
86077;SDS011;76680;59.304;18.294;2024-02-26T04:22:09;22.67;;;11.83;;
86077;SDS011;76680;59.304;18.294;2024-02-26T04:24:35;23.07;;;11.47;;
86077;SDS011;76680;59.304;18.294;2024-02-26T04:27:01;22.47;;;11.63;;
86077;SDS011;76680;59.304;18.294;2024-02-26T04:29:26;25.33;;;12.20;;
86077;SDS011;76680;59.304;18.294;2024-02-26T04:31:51;34.10;;;11.27;;
86077;SDS011;76680;59.304;18.294;2024-02-26T04:34:17;23.33;;;11.70;;
86077;SDS011;76680;59.304;18.294;2024-02-26T04:36:42;24.83;;;12.47;;
86077;SDS011;76680;59.304;18.294;2024-02-26T04:39:07;23.83;;;12.07;;
86077;SDS011;76680;59.304;18.294;2024-02-26T04:41:33;28.40;;;12.57;;
86077;SDS011;76680;59.304;18.294;2024-02-26T04:43:58;42.90;;;13.80;;
86077;SDS011;76680;59.304;18.294;2024-02-26T04:46:23;24.03;;;12.70;;
86077;SDS011;76680;59.304;18.294;2024-02-26T04:48:49;22.20;;;11.23;;
86077;SDS011;76680;59.304;18.294;2024-02-26T04:51:14;23.63;;;12.30;;
86077;SDS011;76680;59.304;18.294;2024-02-26T04:53:39;21.20;;;11.30;;
86077;SDS011;76680;59.304;18.294;2024-02-26T04:56:05;21.10;;;11.33;;
86077;SDS011;76680;59.304;18.294;2024-02-26T04:58:30;18.70;;;10.50;;
86077;SDS011;76680;59.304;18.294;2024-02-26T05:00:55;20.87;;;11.17;;
86077;SDS011;76680;59.304;18.294;2024-02-26T05:03:21;18.30;;;8.83;;
86077;SDS011;76680;59.304;18.294;2024-02-26T05:05:46;19.63;;;10.97;;
86077;SDS011;76680;59.304;18.294;2024-02-26T05:08:12;23.47;;;11.17;;
86077;SDS011;76680;59.304;18.294;2024-02-26T05:10:37;26.80;;;10.93;;
86077;SDS011;76680;59.304;18.294;2024-02-26T05:13:07;21.40;;;11.17;;
86077;SDS011;76680;59.304;18.294;2024-02-26T05:15:33;19.17;;;11.53;;
86077;SDS011;76680;59.304;18.294;2024-02-26T05:17:58;23.63;;;13.07;;
86077;SDS011;76680;59.304;18.294;2024-02-26T05:20:24;18.47;;;10.93;;
86077;SDS011;76680;59.304;18.294;2024-02-26T05:22:49;20.57;;;11.43;;
86077;SDS011;76680;59.304;18.294;2024-02-26T05:25:15;27.47;;;12.50;;
86077;SDS011;76680;59.304;18.294;2024-02-26T05:27:41;18.23;;;11.00;;
86077;SDS011;76680;59.304;18.294;2024-02-26T05:30:06;18.90;;;9.77;;
86077;SDS011;76680;59.304;18.294;2024-02-26T05:32:32;18.63;;;10.50;;
86077;SDS011;76680;59.304;18.294;2024-02-26T05:34:57;22.20;;;12.07;;
86077;SDS011;76680;59.304;18.294;2024-02-26T05:37:22;17.67;;;10.80;;
86077;SDS011;76680;59.304;18.294;2024-02-26T05:39:48;25.40;;;11.47;;
86077;SDS011;76680;59.304;18.294;2024-02-26T05:42:13;17.70;;;10.50;;
86077;SDS011;76680;59.304;18.294;2024-02-26T05:44:38;24.00;;;11.10;;
86077;SDS011;76680;59.304;18.294;2024-02-26T05:47:03;18.17;;;11.70;;
86077;SDS011;76680;59.304;18.294;2024-02-26T05:49:29;20.50;;;11.27;;
86077;SDS011;76680;59.304;18.294;2024-02-26T05:51:54;24.73;;;10.33;;
86077;SDS011;76680;59.304;18.294;2024-02-26T05:54:20;16.20;;;10.27;;
86077;SDS011;76680;59.304;18.294;2024-02-26T05:56:45;18.10;;;11.00;;
86077;SDS011;76680;59.304;18.294;2024-02-26T05:59:10;18.70;;;10.90;;
86077;SDS011;76680;59.304;18.294;2024-02-26T06:01:36;20.63;;;10.73;;
86077;SDS011;76680;59.304;18.294;2024-02-26T06:04:01;19.63;;;11.13;;
86077;SDS011;76680;59.304;18.294;2024-02-26T06:06:26;16.40;;;10.27;;
86077;SDS011;76680;59.304;18.294;2024-02-26T06:08:52;19.23;;;10.43;;
86077;SDS011;76680;59.304;18.294;2024-02-26T06:11:17;19.93;;;10.40;;
86077;SDS011;76680;59.304;18.294;2024-02-26T06:13:43;15.30;;;9.83;;
86077;SDS011;76680;59.304;18.294;2024-02-26T06:16:08;22.00;;;12.43;;
86077;SDS011;76680;59.304;18.294;2024-02-26T06:18:33;20.30;;;11.60;;
86077;SDS011;76680;59.304;18.294;2024-02-26T06:20:59;21.30;;;11.87;;
86077;SDS011;76680;59.304;18.294;2024-02-26T06:23:25;16.83;;;10.00;;
86077;SDS011;76680;59.304;18.294;2024-02-26T06:25:51;24.30;;;10.43;;
86077;SDS011;76680;59.304;18.294;2024-02-26T06:28:16;20.47;;;11.57;;
86077;SDS011;76680;59.304;18.294;2024-02-26T06:30:41;17.57;;;10.17;;
86077;SDS011;76680;59.304;18.294;2024-02-26T06:33:07;19.87;;;11.23;;
86077;SDS011;76680;59.304;18.294;2024-02-26T06:35:32;27.33;;;11.70;;
86077;SDS011;76680;59.304;18.294;2024-02-26T06:37:58;18.20;;;10.73;;
86077;SDS011;76680;59.304;18.294;2024-02-26T06:40:23;19.27;;;10.90;;
86077;SDS011;76680;59.304;18.294;2024-02-26T06:42:48;15.93;;;10.17;;
86077;SDS011;76680;59.304;18.294;2024-02-26T06:45:15;17.00;;;11.03;;
86077;SDS011;76680;59.304;18.294;2024-02-26T06:47:40;16.00;;;10.00;;
86077;SDS011;76680;59.304;18.294;2024-02-26T06:50:06;21.57;;;11.10;;
86077;SDS011;76680;59.304;18.294;2024-02-26T06:52:31;23.77;;;12.03;;
86077;SDS011;76680;59.304;18.294;2024-02-26T06:54:56;22.90;;;11.73;;
86077;SDS011;76680;59.304;18.294;2024-02-26T06:57:22;18.40;;;10.37;;
86077;SDS011;76680;59.304;18.294;2024-02-26T06:59:47;27.00;;;12.17;;
86077;SDS011;76680;59.304;18.294;2024-02-26T07:02:13;26.30;;;14.20;;
86077;SDS011;76680;59.304;18.294;2024-02-26T07:04:38;37.30;;;15.80;;
86077;SDS011;76680;59.304;18.294;2024-02-26T07:07:04;30.47;;;14.47;;
86077;SDS011;76680;59.304;18.294;2024-02-26T07:09:29;39.43;;;14.00;;
86077;SDS011;76680;59.304;18.294;2024-02-26T07:11:54;25.50;;;13.40;;
86077;SDS011;76680;59.304;18.294;2024-02-26T07:14:19;30.80;;;14.97;;
86077;SDS011;76680;59.304;18.294;2024-02-26T07:16:45;51.97;;;16.50;;
86077;SDS011;76680;59.304;18.294;2024-02-26T07:19:10;54.17;;;17.07;;
86077;SDS011;76680;59.304;18.294;2024-02-26T07:21:35;60.03;;;18.53;;
86077;SDS011;76680;59.304;18.294;2024-02-26T07:24:01;85.47;;;19.97;;
86077;SDS011;76680;59.304;18.294;2024-02-26T07:26:26;53.90;;;17.23;;
86077;SDS011;76680;59.304;18.294;2024-02-26T07:28:52;67.60;;;18.80;;
86077;SDS011;76680;59.304;18.294;2024-02-26T07:31:17;88.83;;;21.40;;
86077;SDS011;76680;59.304;18.294;2024-02-26T07:33:43;310.07;;;26.10;;
86077;SDS011;76680;59.304;18.294;2024-02-26T07:36:08;184.53;;;24.50;;
86077;SDS011;76680;59.304;18.294;2024-02-26T07:38:33;344.93;;;25.70;;
86077;SDS011;76680;59.304;18.294;2024-02-26T07:40:58;495.97;;;30.27;;
86077;SDS011;76680;59.304;18.294;2024-02-26T07:43:24;488.13;;;29.03;;
86077;SDS011;76680;59.304;18.294;2024-02-26T07:45:49;199.83;;;20.00;;
86077;SDS011;76680;59.304;18.294;2024-02-26T07:48:14;320.00;;;25.87;;
86077;SDS011;76680;59.304;18.294;2024-02-26T07:50:40;547.47;;;31.77;;
86077;SDS011;76680;59.304;18.294;2024-02-26T07:53:08;517.13;;;28.50;;
86077;SDS011;76680;59.304;18.294;2024-02-26T07:55:33;366.00;;;24.43;;
86077;SDS011;76680;59.304;18.294;2024-02-26T07:57:58;493.20;;;23.77;;
86077;SDS011;76680;59.304;18.294;2024-02-26T08:00:23;351.30;;;18.77;;
86077;SDS011;76680;59.304;18.294;2024-02-26T08:02:49;497.77;;;23.27;;
86077;SDS011;76680;59.304;18.294;2024-02-26T08:05:14;526.53;;;23.50;;
86077;SDS011;76680;59.304;18.294;2024-02-26T08:07:39;432.47;;;21.80;;
86077;SDS011;76680;59.304;18.294;2024-02-26T08:10:05;395.77;;;22.87;;
86077;SDS011;76680;59.304;18.294;2024-02-26T08:12:30;306.07;;;20.00;;
86077;SDS011;76680;59.304;18.294;2024-02-26T08:14:55;445.87;;;30.60;;
86077;SDS011;76680;59.304;18.294;2024-02-26T08:17:21;318.10;;;21.47;;
86077;SDS011;76680;59.304;18.294;2024-02-26T08:19:46;263.33;;;20.00;;
86077;SDS011;76680;59.304;18.294;2024-02-26T08:22:12;313.17;;;20.50;;
86077;SDS011;76680;59.304;18.294;2024-02-26T08:24:41;308.83;;;21.53;;
86077;SDS011;76680;59.304;18.294;2024-02-26T08:27:06;248.10;;;21.07;;
86077;SDS011;76680;59.304;18.294;2024-02-26T08:29:32;260.77;;;22.73;;
86077;SDS011;76680;59.304;18.294;2024-02-26T08:31:57;229.93;;;18.73;;
86077;SDS011;76680;59.304;18.294;2024-02-26T08:34:22;128.20;;;16.40;;
86077;SDS011;76680;59.304;18.294;2024-02-26T08:36:47;292.20;;;17.37;;
86077;SDS011;76680;59.304;18.294;2024-02-26T08:39:14;182.17;;;15.50;;
86077;SDS011;76680;59.304;18.294;2024-02-26T08:41:39;176.63;;;16.23;;
86077;SDS011;76680;59.304;18.294;2024-02-26T08:44:04;159.17;;;17.60;;
86077;SDS011;76680;59.304;18.294;2024-02-26T08:46:30;168.87;;;17.93;;
86077;SDS011;76680;59.304;18.294;2024-02-26T08:48:56;91.17;;;17.17;;
86077;SDS011;76680;59.304;18.294;2024-02-26T08:51:21;99.30;;;16.73;;
86077;SDS011;76680;59.304;18.294;2024-02-26T08:53:46;79.30;;;14.90;;
86077;SDS011;76680;59.304;18.294;2024-02-26T08:56:12;111.10;;;17.40;;
86077;SDS011;76680;59.304;18.294;2024-02-26T08:58:41;123.03;;;15.67;;
86077;SDS011;76680;59.304;18.294;2024-02-26T09:01:07;112.47;;;15.30;;
86077;SDS011;76680;59.304;18.294;2024-02-26T09:03:32;108.63;;;15.50;;
86077;SDS011;76680;59.304;18.294;2024-02-26T09:05:57;94.87;;;16.43;;
86077;SDS011;76680;59.304;18.294;2024-02-26T09:08:23;94.73;;;15.47;;
86077;SDS011;76680;59.304;18.294;2024-02-26T09:10:49;145.43;;;15.67;;
86077;SDS011;76680;59.304;18.294;2024-02-26T09:13:14;120.73;;;16.03;;
86077;SDS011;76680;59.304;18.294;2024-02-26T09:15:40;205.90;;;18.47;;
86077;SDS011;76680;59.304;18.294;2024-02-26T09:18:05;156.57;;;18.37;;
86077;SDS011;76680;59.304;18.294;2024-02-26T09:20:31;272.27;;;19.97;;
86077;SDS011;76680;59.304;18.294;2024-02-26T09:22:56;231.90;;;19.30;;
86077;SDS011;76680;59.304;18.294;2024-02-26T09:25:21;218.77;;;17.93;;
86077;SDS011;76680;59.304;18.294;2024-02-26T09:27:47;242.47;;;20.03;;
86077;SDS011;76680;59.304;18.294;2024-02-26T09:30:13;233.57;;;19.13;;
86077;SDS011;76680;59.304;18.294;2024-02-26T09:32:38;287.23;;;20.70;;
86077;SDS011;76680;59.304;18.294;2024-02-26T09:35:05;342.53;;;20.47;;
86077;SDS011;76680;59.304;18.294;2024-02-26T09:37:30;237.20;;;19.20;;
86077;SDS011;76680;59.304;18.294;2024-02-26T09:39:55;212.17;;;18.27;;
86077;SDS011;76680;59.304;18.294;2024-02-26T09:42:20;243.83;;;20.73;;
86077;SDS011;76680;59.304;18.294;2024-02-26T09:44:50;178.70;;;17.60;;
86077;SDS011;76680;59.304;18.294;2024-02-26T09:47:16;181.80;;;16.10;;
86077;SDS011;76680;59.304;18.294;2024-02-26T09:49:42;63.80;;;12.97;;
86077;SDS011;76680;59.304;18.294;2024-02-26T09:52:08;131.13;;;15.07;;
86077;SDS011;76680;59.304;18.294;2024-02-26T09:54:34;144.83;;;18.37;;
86077;SDS011;76680;59.304;18.294;2024-02-26T09:57:00;273.43;;;19.87;;
86077;SDS011;76680;59.304;18.294;2024-02-26T09:59:28;109.37;;;16.97;;
86077;SDS011;76680;59.304;18.294;2024-02-26T10:01:54;52.33;;;11.20;;
86077;SDS011;76680;59.304;18.294;2024-02-26T10:04:20;45.10;;;13.87;;
86077;SDS011;76680;59.304;18.294;2024-02-26T10:06:46;75.23;;;15.37;;
86077;SDS011;76680;59.304;18.294;2024-02-26T10:09:12;90.13;;;16.37;;
86077;SDS011;76680;59.304;18.294;2024-02-26T10:11:38;88.27;;;19.50;;
86077;SDS011;76680;59.304;18.294;2024-02-26T10:14:04;72.53;;;17.40;;
86077;SDS011;76680;59.304;18.294;2024-02-26T10:16:29;74.27;;;17.30;;
86077;SDS011;76680;59.304;18.294;2024-02-26T10:18:55;83.77;;;17.10;;
86077;SDS011;76680;59.304;18.294;2024-02-26T10:21:20;52.70;;;17.40;;
86077;SDS011;76680;59.304;18.294;2024-02-26T10:23:46;60.90;;;17.60;;
86077;SDS011;76680;59.304;18.294;2024-02-26T10:26:18;44.07;;;14.63;;
86077;SDS011;76680;59.304;18.294;2024-02-26T10:28:44;45.43;;;15.77;;
86077;SDS011;76680;59.304;18.294;2024-02-26T10:31:10;49.70;;;16.50;;
86077;SDS011;76680;59.304;18.294;2024-02-26T10:33:39;39.30;;;15.43;;
86077;SDS011;76680;59.304;18.294;2024-02-26T10:36:05;29.10;;;14.47;;
86077;SDS011;76680;59.304;18.294;2024-02-26T10:38:30;28.70;;;13.97;;
86077;SDS011;76680;59.304;18.294;2024-02-26T10:40:57;30.63;;;13.77;;
86077;SDS011;76680;59.304;18.294;2024-02-26T10:43:22;31.97;;;14.17;;
86077;SDS011;76680;59.304;18.294;2024-02-26T10:45:47;34.60;;;12.90;;
86077;SDS011;76680;59.304;18.294;2024-02-26T10:48:13;32.97;;;13.07;;
86077;SDS011;76680;59.304;18.294;2024-02-26T10:50:39;28.43;;;11.50;;
86077;SDS011;76680;59.304;18.294;2024-02-26T10:53:04;27.30;;;13.80;;
86077;SDS011;76680;59.304;18.294;2024-02-26T10:55:32;32.37;;;13.60;;
86077;SDS011;76680;59.304;18.294;2024-02-26T10:58:00;35.93;;;13.50;;
86077;SDS011;76680;59.304;18.294;2024-02-26T11:00:26;41.20;;;15.73;;
86077;SDS011;76680;59.304;18.294;2024-02-26T11:02:53;39.50;;;13.70;;
86077;SDS011;76680;59.304;18.294;2024-02-26T11:05:19;47.13;;;14.83;;
86077;SDS011;76680;59.304;18.294;2024-02-26T11:07:44;31.30;;;15.40;;
86077;SDS011;76680;59.304;18.294;2024-02-26T11:10:12;36.33;;;12.87;;
86077;SDS011;76680;59.304;18.294;2024-02-26T11:12:37;30.17;;;13.53;;
86077;SDS011;76680;59.304;18.294;2024-02-26T11:15:04;32.13;;;14.10;;
86077;SDS011;76680;59.304;18.294;2024-02-26T11:17:30;37.70;;;14.40;;
86077;SDS011;76680;59.304;18.294;2024-02-26T11:19:56;29.77;;;13.97;;
86077;SDS011;76680;59.304;18.294;2024-02-26T11:22:23;22.57;;;11.47;;
86077;SDS011;76680;59.304;18.294;2024-02-26T11:24:51;21.60;;;13.90;;
86077;SDS011;76680;59.304;18.294;2024-02-26T11:27:16;20.37;;;11.30;;
86077;SDS011;76680;59.304;18.294;2024-02-26T11:29:44;24.87;;;12.53;;
86077;SDS011;76680;59.304;18.294;2024-02-26T11:32:11;23.63;;;11.73;;
86077;SDS011;76680;59.304;18.294;2024-02-26T11:34:37;21.00;;;12.33;;
86077;SDS011;76680;59.304;18.294;2024-02-26T11:37:10;23.77;;;13.80;;
86077;SDS011;76680;59.304;18.294;2024-02-26T11:39:35;21.43;;;11.70;;
86077;SDS011;76680;59.304;18.294;2024-02-26T11:42:07;33.20;;;12.97;;
86077;SDS011;76680;59.304;18.294;2024-02-26T11:44:33;25.03;;;12.10;;
86077;SDS011;76680;59.304;18.294;2024-02-26T11:46:59;22.20;;;12.70;;
86077;SDS011;76680;59.304;18.294;2024-02-26T11:49:29;23.03;;;11.27;;
86077;SDS011;76680;59.304;18.294;2024-02-26T11:51:56;19.10;;;10.57;;
86077;SDS011;76680;59.304;18.294;2024-02-26T11:59:48;19.10;;;10.20;;
86077;SDS011;76680;59.304;18.294;2024-02-26T12:04:59;19.97;;;11.17;;
86077;SDS011;76680;59.304;18.294;2024-02-26T12:07:24;15.00;;;10.30;;
86077;SDS011;76680;59.304;18.294;2024-02-26T12:09:50;22.40;;;12.30;;
86077;SDS011;76680;59.304;18.294;2024-02-26T12:12:17;19.53;;;11.23;;
86077;SDS011;76680;59.304;18.294;2024-02-26T12:14:53;19.40;;;11.10;;
86077;SDS011;76680;59.304;18.294;2024-02-26T12:17:19;18.10;;;10.10;;
86077;SDS011;76680;59.304;18.294;2024-02-26T12:19:45;12.73;;;9.17;;
86077;SDS011;76680;59.304;18.294;2024-02-26T12:22:12;16.97;;;10.27;;
86077;SDS011;76680;59.304;18.294;2024-02-26T12:24:37;21.63;;;10.73;;
86077;SDS011;76680;59.304;18.294;2024-02-26T12:27:03;18.60;;;9.70;;
86077;SDS011;76680;59.304;18.294;2024-02-26T12:29:28;18.03;;;10.30;;
86077;SDS011;76680;59.304;18.294;2024-02-26T12:31:53;17.10;;;10.30;;
86077;SDS011;76680;59.304;18.294;2024-02-26T12:34:19;16.50;;;9.70;;
86077;SDS011;76680;59.304;18.294;2024-02-26T12:36:44;15.83;;;9.53;;
86077;SDS011;76680;59.304;18.294;2024-02-26T12:39:10;13.23;;;8.87;;
86077;SDS011;76680;59.304;18.294;2024-02-26T12:41:35;10.20;;;8.10;;
86077;SDS011;76680;59.304;18.294;2024-02-26T12:44:01;11.17;;;8.00;;
86077;SDS011;76680;59.304;18.294;2024-02-26T12:46:26;21.43;;;9.27;;
86077;SDS011;76680;59.304;18.294;2024-02-26T12:48:51;19.50;;;9.67;;
86077;SDS011;76680;59.304;18.294;2024-02-26T12:51:17;15.90;;;8.93;;
86077;SDS011;76680;59.304;18.294;2024-02-26T12:53:43;21.97;;;9.53;;
86077;SDS011;76680;59.304;18.294;2024-02-26T12:56:09;16.87;;;9.97;;
86077;SDS011;76680;59.304;18.294;2024-02-26T12:58:34;17.13;;;9.20;;
86077;SDS011;76680;59.304;18.294;2024-02-26T13:01:00;17.03;;;10.70;;
86077;SDS011;76680;59.304;18.294;2024-02-26T13:03:26;32.60;;;11.50;;
86077;SDS011;76680;59.304;18.294;2024-02-26T13:05:52;15.40;;;9.90;;
86077;SDS011;76680;59.304;18.294;2024-02-26T13:08:21;21.47;;;11.40;;
86077;SDS011;76680;59.304;18.294;2024-02-26T13:10:47;21.43;;;12.17;;
86077;SDS011;76680;59.304;18.294;2024-02-26T13:13:15;13.77;;;9.30;;
86077;SDS011;76680;59.304;18.294;2024-02-26T13:15:45;19.40;;;11.80;;
86077;SDS011;76680;59.304;18.294;2024-02-26T13:18:10;16.20;;;10.43;;
86077;SDS011;76680;59.304;18.294;2024-02-26T13:20:36;19.63;;;10.43;;
86077;SDS011;76680;59.304;18.294;2024-02-26T13:23:05;18.00;;;11.50;;
86077;SDS011;76680;59.304;18.294;2024-02-26T13:25:31;19.67;;;12.40;;
86077;SDS011;76680;59.304;18.294;2024-02-26T13:28:06;17.83;;;11.63;;
86077;SDS011;76680;59.304;18.294;2024-02-26T13:30:33;15.60;;;11.00;;
86077;SDS011;76680;59.304;18.294;2024-02-26T13:33:06;17.23;;;12.03;;
86077;SDS011;76680;59.304;18.294;2024-02-26T13:35:32;16.57;;;10.77;;
86077;SDS011;76680;59.304;18.294;2024-02-26T13:37:59;12.70;;;9.80;;
86077;SDS011;76680;59.304;18.294;2024-02-26T13:40:25;14.60;;;11.40;;
86077;SDS011;76680;59.304;18.294;2024-02-26T13:42:50;15.43;;;10.03;;
86077;SDS011;76680;59.304;18.294;2024-02-26T13:45:17;13.63;;;10.00;;
86077;SDS011;76680;59.304;18.294;2024-02-26T13:47:42;13.40;;;10.03;;
86077;SDS011;76680;59.304;18.294;2024-02-26T13:50:08;14.67;;;9.20;;
86077;SDS011;76680;59.304;18.294;2024-02-26T13:52:33;15.77;;;10.80;;
86077;SDS011;76680;59.304;18.294;2024-02-26T13:54:59;17.63;;;9.10;;
86077;SDS011;76680;59.304;18.294;2024-02-26T13:57:24;12.10;;;8.73;;
86077;SDS011;76680;59.304;18.294;2024-02-26T13:59:50;11.77;;;8.73;;
86077;SDS011;76680;59.304;18.294;2024-02-26T14:02:16;13.67;;;8.53;;
86077;SDS011;76680;59.304;18.294;2024-02-26T14:04:42;10.87;;;7.83;;
86077;SDS011;76680;59.304;18.294;2024-02-26T14:07:07;10.57;;;7.10;;